createdAt,value
2022-08-17T00:03:59.298Z,50.00
2022-08-17T00:08:59.012Z,49.25
2022-08-17T00:13:56.850Z,48.86
2022-08-17T00:19:06.088Z,48.64
2022-08-17T00:24:05.602Z,49.59
2022-08-17T00:29:02.310Z,49.55
2022-08-17T00:33:59.163Z,49.71
2022-08-17T00:38:55.869Z,49.59
2022-08-17T00:43:54.588Z,49.91
2022-08-17T00:48:51.392Z,50.62
2022-08-17T00:53:51.172Z,50.50
2022-08-17T00:58:49.272Z,50.92
2022-08-17T01:03:46.911Z,51.69
2022-08-17T01:08:43.650Z,52.41
2022-08-17T01:13:41.730Z,52.99
2022-08-17T01:18:39.772Z,52.56
2022-08-17T01:23:37.447Z,52.25
2022-08-17T01:28:53.901Z,52.63
2022-08-17T01:33:51.701Z,52.72
2022-08-17T01:38:49.119Z,52.99
2022-08-17T01:43:49.166Z,52.88
2022-08-17T01:48:46.901Z,52.35
2022-08-17T01:53:47.145Z,52.31
2022-08-17T01:58:45.067Z,51.54
2022-08-17T02:03:59.020Z,51.40
2022-08-17T02:09:01.752Z,51.56
2022-08-17T02:14:02.780Z,51.75
2022-08-17T02:19:01.011Z,51.48
2022-08-17T02:23:57.965Z,51.64
2022-08-17T02:28:54.964Z,50.52
2022-08-17T02:34:00.277Z,50.90
2022-08-17T02:39:01.718Z,51.30
2022-08-17T02:43:58.503Z,51.86
2022-08-17T02:48:55.857Z,52.95
2022-08-17T02:53:52.533Z,52.75
2022-08-17T02:59:09.179Z,52.89
2022-08-17T03:04:06.609Z,53.48
2022-08-17T03:09:03.328Z,54.22
2022-08-17T03:14:00.290Z,54.65
2022-08-17T03:18:57.362Z,54.41
2022-08-17T03:23:54.809Z,53.95
2022-08-17T03:28:51.486Z,53.40
2022-08-17T03:33:48.248Z,53.95
2022-08-17T03:38:45.100Z,54.21
2022-08-17T03:43:42.521Z,53.84
2022-08-17T03:48:57.371Z,53.31
2022-08-17T03:54:13.212Z,52.88
2022-08-17T03:59:20.867Z,52.32
2022-08-17T04:04:19.336Z,52.58
2022-08-17T04:09:24.490Z,53.71
2022-08-17T04:14:21.852Z,54.75
2022-08-17T04:19:18.616Z,56.53
2022-08-17T04:24:15.297Z,59.23
2022-08-17T04:29:12.427Z,59.41
2022-08-17T04:34:13.646Z,60.67
2022-08-17T04:39:10.351Z,60.79
2022-08-17T04:44:07.568Z,60.84
2022-08-17T04:49:07.205Z,60.13
2022-08-17T04:54:05.999Z,59.50
2022-08-17T04:59:04.257Z,58.07
2022-08-17T05:04:20.937Z,57.65
2022-08-17T05:09:23.730Z,57.66
2022-08-17T05:14:21.659Z,56.55
2022-08-17T05:19:29.204Z,57.39
2022-08-17T05:24:41.251Z,56.79
2022-08-17T05:29:40.644Z,57.20
2022-08-17T05:34:37.428Z,57.46
2022-08-17T05:39:34.790Z,55.49
2022-08-17T05:44:31.572Z,55.62
2022-08-17T05:49:34.047Z,55.16
2022-08-17T05:54:39.320Z,54.64
2022-08-17T05:59:44.363Z,53.92
2022-08-17T06:04:50.071Z,54.12
2022-08-17T06:09:52.553Z,53.73
2022-08-17T06:14:58.258Z,54.51
2022-08-17T06:19:57.881Z,53.74
2022-08-17T06:24:56.670Z,54.41
2022-08-17T06:29:57.927Z,53.73
2022-08-17T06:34:55.153Z,53.14
2022-08-17T06:40:36.053Z,53.29
2022-08-17T06:45:35.548Z,51.48
2022-08-17T06:50:35.650Z,50.73
2022-08-17T06:55:38.286Z,50.97
2022-08-17T07:00:40.317Z,50.94
2022-08-17T07:05:40.722Z,50.46
2022-08-17T07:10:40.548Z,49.86
2022-08-17T07:15:43.980Z,50.29
2022-08-17T07:20:42.744Z,49.14
2022-08-17T07:25:40.039Z,49.12
2022-08-17T07:30:48.547Z,48.04
2022-08-17T07:35:49.540Z,48.30
2022-08-17T07:40:48.405Z,46.55
2022-08-17T07:46:12.037Z,46.20
2022-08-17T07:51:16.631Z,45.02
2022-08-17T07:56:34.382Z,44.60
2022-08-17T08:01:41.789Z,44.19
2022-08-17T08:06:46.955Z,43.75
2022-08-17T08:11:44.857Z,43.45
2022-08-17T08:16:56.997Z,42.36
2022-08-17T08:22:00.956Z,42.22
2022-08-17T08:27:03.716Z,42.62
2022-08-17T08:32:05.464Z,42.23
2022-08-17T08:37:19.103Z,41.91
2022-08-17T08:42:22.908Z,41.37
2022-08-17T08:47:44.478Z,40.69
2022-08-17T08:53:00.036Z,40.22
2022-08-17T08:58:00.797Z,39.27
2022-08-17T09:03:18.832Z,38.80
2022-08-17T09:08:19.489Z,38.53
2022-08-17T09:13:21.984Z,38.56
2022-08-17T09:19:03.059Z,38.43
2022-08-17T09:23:41.792Z,37.29
2022-08-17T09:28:44.699Z,36.70
2022-08-17T09:33:44.282Z,37.34
2022-08-17T09:38:44.570Z,37.64
2022-08-17T09:43:46.642Z,37.68
2022-08-17T09:48:47.703Z,36.46
2022-08-17T09:53:44.807Z,35.87
2022-08-17T09:58:48.436Z,36.08
2022-08-17T10:03:58.839Z,35.52
2022-08-17T10:09:04.331Z,35.68
2022-08-17T10:14:24.039Z,34.40
2022-08-17T10:19:27.555Z,34.08
2022-08-17T10:25:23.262Z,33.39
2022-08-17T10:30:13.323Z,33.59
2022-08-17T10:35:28.858Z,34.67
2022-08-17T10:40:32.588Z,33.93
2022-08-17T10:45:33.931Z,33.19
2022-08-17T10:50:45.536Z,32.70
2022-08-17T10:56:05.142Z,32.70
2022-08-17T11:01:03.230Z,32.65
2022-08-17T11:06:06.156Z,32.22
2022-08-17T11:11:12.413Z,31.60
2022-08-17T11:16:20.683Z,30.26
2022-08-17T11:21:29.550Z,29.58
2022-08-17T11:26:28.800Z,29.76
2022-08-17T11:31:39.016Z,28.98
2022-08-17T11:36:52.971Z,30.20
2022-08-17T11:41:54.440Z,30.48
2022-08-17T11:47:17.939Z,29.77
2022-08-17T11:52:34.878Z,29.95
2022-08-17T11:58:05.871Z,28.31
2022-08-17T12:03:21.700Z,29.50
2022-08-17T12:08:19.755Z,29.51
2022-08-17T12:13:17.222Z,28.54
2022-08-17T12:18:18.490Z,29.73
2022-08-17T12:23:18.500Z,28.49
2022-08-17T12:28:21.440Z,28.98
2022-08-17T12:33:25.443Z,28.69
2022-08-17T12:38:32.702Z,29.22
2022-08-17T12:43:33.118Z,27.55
2022-08-17T12:48:31.342Z,27.68
2022-08-17T12:53:29.949Z,27.54
2022-08-17T12:58:28.754Z,27.50
2022-08-17T13:03:36.218Z,27.00
2022-08-17T13:08:35.503Z,27.43
2022-08-17T13:13:33.002Z,25.57
2022-08-17T13:18:41.941Z,25.16
2022-08-17T13:23:38.678Z,25.92
2022-08-17T13:28:46.728Z,26.40
2022-08-17T13:33:45.113Z,26.29
2022-08-17T13:38:45.064Z,26.04
2022-08-17T13:43:47.925Z,26.44
2022-08-17T13:48:45.667Z,27.03
2022-08-17T13:53:59.124Z,26.85
2022-08-17T13:58:57.182Z,26.84
2022-08-17T14:03:55.994Z,28.92
2022-08-17T14:08:54.019Z,29.92
2022-08-17T14:13:50.861Z,30.14
2022-08-17T14:18:56.176Z,30.25
2022-08-17T14:23:55.143Z,29.89
2022-08-17T14:28:56.197Z,29.70
2022-08-17T14:33:54.100Z,29.05
2022-08-17T14:38:50.811Z,27.96
2022-08-17T14:43:48.159Z,27.12
2022-08-17T14:48:44.822Z,26.80
2022-08-17T14:53:41.890Z,26.32
2022-08-17T14:58:38.586Z,25.48
2022-08-17T15:03:36.171Z,25.75
2022-08-17T15:08:32.827Z,26.12
2022-08-17T15:13:30.184Z,26.00
2022-08-17T15:18:28.309Z,26.11
2022-08-17T15:23:27.124Z,26.27
2022-08-17T15:28:23.865Z,26.53
2022-08-17T15:33:21.645Z,26.34
2022-08-17T15:38:18.355Z,27.04
2022-08-17T15:43:24.823Z,26.54
2022-08-17T15:48:25.194Z,28.17
2022-08-17T15:53:22.343Z,29.32
2022-08-17T15:58:19.779Z,30.24
2022-08-17T16:04:01.438Z,30.55
2022-08-17T16:08:51.398Z,30.69
2022-08-17T16:13:54.526Z,30.46
2022-08-17T16:18:53.516Z,31.13
2022-08-17T16:23:56.229Z,31.06
2022-08-17T16:28:53.982Z,31.23
2022-08-17T16:34:15.858Z,31.35
2022-08-17T16:39:10.277Z,31.56
2022-08-17T16:44:07.873Z,31.93
2022-08-17T16:49:31.540Z,31.51
2022-08-17T16:54:36.908Z,31.79
2022-08-17T16:59:42.071Z,31.81
2022-08-17T17:04:46.199Z,32.30
2022-08-17T17:09:46.442Z,32.65
2022-08-17T17:14:46.453Z,33.10
2022-08-17T17:19:46.432Z,33.00
2022-08-17T17:24:50.186Z,32.37
2022-08-17T17:29:56.822Z,32.62
2022-08-17T17:34:58.182Z,32.15
2022-08-17T17:39:56.573Z,32.43
2022-08-17T17:44:59.022Z,32.73
2022-08-17T17:49:55.866Z,33.97
2022-08-17T17:55:10.154Z,35.48
2022-08-17T18:00:11.772Z,36.70
2022-08-17T18:05:15.382Z,36.32
2022-08-17T18:10:29.506Z,36.52
2022-08-17T18:15:30.875Z,37.82
2022-08-17T18:20:35.890Z,43.73
2022-08-17T18:25:46.262Z,39.15
2022-08-17T18:30:43.695Z,38.92
2022-08-17T18:35:49.905Z,38.91
2022-08-17T18:41:03.879Z,38.01
2022-08-17T18:46:15.653Z,37.93
2022-08-17T18:51:40.606Z,38.62
2022-08-17T18:56:40.829Z,38.87
2022-08-17T19:01:52.474Z,39.09
2022-08-17T19:07:01.691Z,38.93
2022-08-17T19:11:59.269Z,38.34
2022-08-17T19:16:59.314Z,37.83
2022-08-17T19:21:58.477Z,37.63
2022-08-17T19:26:56.891Z,37.06
2022-08-17T19:31:55.597Z,37.04
2022-08-17T19:36:56.306Z,37.02
2022-08-17T19:41:59.442Z,36.68
2022-08-17T19:47:00.845Z,36.30
2022-08-17T19:52:00.008Z,36.47
2022-08-17T19:57:01.781Z,36.13
2022-08-17T20:02:01.047Z,36.08
2022-08-17T20:06:59.501Z,35.69
2022-08-17T20:11:58.500Z,36.12
2022-08-17T20:17:00.518Z,36.41
2022-08-17T20:22:01.137Z,43.44
2022-08-17T20:26:59.736Z,44.62
2022-08-17T20:32:13.113Z,45.87
2022-08-17T20:37:24.120Z,47.27
2022-08-17T20:42:31.186Z,45.92
2022-08-17T20:47:31.540Z,42.97
2022-08-17T20:52:41.761Z,43.83
2022-08-17T20:57:45.871Z,45.10
2022-08-17T21:02:44.189Z,45.26
2022-08-17T21:07:58.644Z,43.81
2022-08-17T21:12:59.366Z,43.01
2022-08-17T21:18:02.107Z,42.24
2022-08-17T21:23:06.131Z,41.46
2022-08-17T21:28:21.591Z,40.55
2022-08-17T21:33:23.206Z,40.57
2022-08-17T21:38:22.089Z,40.27
2022-08-17T21:43:22.811Z,40.12
2022-08-17T21:48:22.125Z,40.01
2022-08-17T21:53:25.397Z,40.90
2022-08-17T21:58:29.080Z,41.40
2022-08-17T22:03:31.134Z,40.79
2022-08-17T22:08:27.838Z,41.78
2022-08-17T22:13:29.320Z,41.61
2022-08-17T22:18:28.242Z,41.35
2022-08-17T22:23:45.112Z,40.67
2022-08-17T22:28:43.754Z,41.28
2022-08-17T22:33:42.757Z,41.63
2022-08-17T22:38:40.891Z,41.99
2022-08-17T22:43:43.713Z,43.41
2022-08-17T22:48:47.028Z,43.49
2022-08-17T22:54:04.216Z,42.87
2022-08-17T22:59:19.099Z,42.66
2022-08-17T23:04:31.453Z,42.47
2022-08-17T23:09:29.321Z,45.13
2022-08-17T23:14:30.919Z,45.13
2022-08-17T23:19:31.064Z,44.83
2022-08-17T23:24:29.971Z,47.08
2022-08-17T23:29:28.768Z,47.37
2022-08-17T23:34:25.883Z,47.64
2022-08-17T23:39:27.436Z,48.42
2022-08-17T23:44:26.231Z,49.88
2022-08-17T23:49:23.806Z,49.01
2022-08-17T23:54:23.365Z,47.95
2022-08-17T23:59:22.001Z,47.82
